Airfield :
LOGIN :

Register | Disclaimer

   EN    FR    IT 

 










Legend :    VFR   Marginal VFR   IFR   Intensive IFR   Very Intensive IFR
Visi :
Ceiling :
>= 8 km
>= 3000ft
5 to 8 km
1000 to 3000 ft
1500m to 5 km
500 to 1000 ft
800 to 1500m
200 to 500 ft
< 800m
< 200 ft
Symbols :   Thunderstorms  Fog  Heavy snow  Heavy precipitations  Wind > 20 kt
SIGMETs :     Misc.  Thunderstorms  Icing  Turbulence  Mountain Waves  Volcanic Ashes






- Airport Elevation : 18 ft
- IATA code : AJA


LFKJ - Ajaccio

CURRENT METAR :
  • 231430Z AUTO 22009KT 160V250 9999 BKN036 BKN045 OVC058 12/06 Q1008 NOSIG

EXPIRED METARs :
  • 231400Z AUTO 21005KT 180V250 9999 SCT036/// BKN056/// OVC068/// ///TCU 12/06 Q1008 BECMG SCT035 BKN045
  • 231330Z AUTO 19007KT 150V220 9999 SCT042 OVC054 12/06 Q1008 NOSIG
  • 231300Z AUTO 20007KT 9999 BKN045 BKN072 13/06 Q1008 NOSIG
  • 231230Z AUTO VRB03KT 9999 FEW041/// BKN052/// OVC070/// //////TCU 13/06 Q1008 BECMG SCT035 BKN045
  • 231200Z AUTO VRB03KT 9999 FEW031/// BKN043/// BKN049/// //////TCU 11/07 Q1008 BECMG SCT035 BKN045
  • 231130Z AUTO 25006KT 220V280 9999 -RA FEW019/// BKN038/// OVC049/// ///TCU 10/07 Q1009 BECMG SCT035 BKN045
  • 231100Z AUTO 20009KT 9999 -RA FEW022/// SCT036/// OVC045/// ///CB 11/08 Q1009 BECMG SCT035 BKN045
  • 231030Z AUTO 20004KT 160V230 9999 SCT041/// BKN048/// BKN090/// ///CB 11/05 Q1009 BECMG SCT035 BKN045

TAF TAF LFKJ
Valid from the 23 at 15:00 until the 24 at 15:00 UTC


231400Z 2315/2415 21010KT 9999 SCT035 BKN050
TEMPO 2315/2319 FEW035TCU BKN035 BKN070
BECMG 2316/2319 05005KT
PROB40
TEMPO 2401/2406 FEW040CB BKN040 BKN070
BECMG 2408/2410 22010KT
ATIS : +33 4 95 23 59 85



MET'MAP, your aeronautical weather chart ! - Copyright ORBIFLY December 2007 - Disclaimer

ORBIFLY MET'MAP TEAM :

Programming & Development : Alexandra Zaïnal
Original concept : Baudouin d'Aumeries
Technical & hardware support : Manuel Goepfert
Assistance : Marc-Olivier Méhu




SOURCES & CREDITS :

   NOAA